createdAt,value
2019-02-10T00:00:33.519Z,77.50
2019-02-10T00:03:03.967Z,77.50
2019-02-10T00:05:34.698Z,77.60
2019-02-10T00:08:05.443Z,77.20
2019-02-10T00:10:36.212Z,77.60
2019-02-10T00:13:29.404Z,77.50
2019-02-10T00:16:01.012Z,77.60
2019-02-10T00:18:32.379Z,78.00
2019-02-10T00:21:03.117Z,77.60
2019-02-10T00:23:33.558Z,78.30
2019-02-10T00:26:04.311Z,77.50
2019-02-10T00:28:34.782Z,77.40
2019-02-10T00:31:05.212Z,77.90
2019-02-10T00:33:35.652Z,77.80
2019-02-10T00:36:06.089Z,77.70
2019-02-10T00:38:36.606Z,77.90
2019-02-10T00:41:07.061Z,78.00
2019-02-10T00:43:37.501Z,77.80
2019-02-10T00:46:07.939Z,78.40
2019-02-10T00:48:38.389Z,78.70
2019-02-10T00:51:08.889Z,77.90
2019-02-10T00:53:39.323Z,77.70
2019-02-10T00:56:09.774Z,77.20
2019-02-10T00:58:40.227Z,77.20
2019-02-10T01:01:10.673Z,77.30
2019-02-10T01:03:41.192Z,77.20
2019-02-10T01:06:11.636Z,77.00
2019-02-10T01:08:42.084Z,77.10
2019-02-10T01:11:12.518Z,77.30
2019-02-10T01:13:42.981Z,76.70
2019-02-10T01:16:13.446Z,76.30
2019-02-10T01:19:08.779Z,76.20
2019-02-10T01:21:43.666Z,76.30
2019-02-10T01:24:14.140Z,76.00
2019-02-10T01:26:44.842Z,76.20
2019-02-10T01:29:15.718Z,76.30
2019-02-10T01:31:46.226Z,76.40
2019-02-10T01:34:16.666Z,76.60
2019-02-10T01:36:49.742Z,76.50
2019-02-10T01:39:22.106Z,76.50
2019-02-10T01:41:52.572Z,76.70
2019-02-10T01:44:23.018Z,76.70
2019-02-10T01:46:53.442Z,77.00
2019-02-10T01:49:23.886Z,76.90
2019-02-10T01:51:54.336Z,77.10
2019-02-10T01:54:24.790Z,77.20
2019-02-10T01:56:55.252Z,77.20
2019-02-10T01:59:25.967Z,77.30
2019-02-10T02:01:56.467Z,77.30
2019-02-10T02:04:27.995Z,77.60
2019-02-10T02:06:58.442Z,77.50
2019-02-10T02:09:28.867Z,77.60
2019-02-10T02:11:59.300Z,77.40
2019-02-10T02:14:29.986Z,77.50
2019-02-10T02:17:00.418Z,77.80
2019-02-10T02:19:30.975Z,77.80
2019-02-10T02:22:01.419Z,77.90
2019-02-10T02:24:31.874Z,77.80
2019-02-10T02:27:02.330Z,77.80
2019-02-10T02:29:32.778Z,77.90
2019-02-10T02:32:03.223Z,78.20
2019-02-10T02:34:34.355Z,78.40
2019-02-10T02:37:07.972Z,78.60
2019-02-10T02:39:37.726Z,77.90
2019-02-10T02:42:08.162Z,78.10
2019-02-10T02:44:38.617Z,78.10
2019-02-10T02:47:09.481Z,78.10
2019-02-10T02:49:39.925Z,78.20
2019-02-10T02:52:10.721Z,78.10
2019-02-10T02:54:41.146Z,78.10
2019-02-10T02:57:12.022Z,78.40
2019-02-10T02:59:42.814Z,78.30
2019-02-10T03:02:13.279Z,78.50
2019-02-10T03:04:43.713Z,78.50
2019-02-10T03:07:17.984Z,78.40
2019-02-10T03:09:46.557Z,78.70
2019-02-10T03:12:16.997Z,78.80
2019-02-10T03:14:47.432Z,79.10
2019-02-10T03:17:17.870Z,79.10
2019-02-10T03:19:48.336Z,79.20
2019-02-10T03:22:19.186Z,79.10
2019-02-10T03:24:50.087Z,79.10
2019-02-10T03:27:20.518Z,79.60
2019-02-10T03:29:50.990Z,78.80
2019-02-10T03:32:21.434Z,79.00
2019-02-10T03:34:51.880Z,79.10
2019-02-10T03:37:27.202Z,79.10
2019-02-10T03:39:55.823Z,79.30
2019-02-10T03:42:26.538Z,79.40
2019-02-10T03:44:57.004Z,79.10
2019-02-10T03:47:27.439Z,78.70
2019-02-10T03:49:58.195Z,78.60
2019-02-10T03:52:28.631Z,79.60
2019-02-10T03:54:59.062Z,78.80
2019-02-10T03:57:29.859Z,78.70
2019-02-10T04:00:00.333Z,78.80
2019-02-10T04:02:30.758Z,78.70
2019-02-10T04:05:01.200Z,78.70
2019-02-10T04:07:36.173Z,78.30
2019-02-10T04:10:04.084Z,78.10
2019-02-10T04:12:34.524Z,78.10
2019-02-10T04:15:05.377Z,78.10
2019-02-10T04:17:35.801Z,77.90
2019-02-10T04:20:06.288Z,77.80
2019-02-10T04:22:36.985Z,77.70
2019-02-10T04:25:07.485Z,77.90
2019-02-10T04:27:37.922Z,77.60
2019-02-10T04:30:09.266Z,77.50
2019-02-10T04:32:40.083Z,76.90
2019-02-10T04:35:10.536Z,77.00
2019-02-10T04:37:46.099Z,76.90
2019-02-10T04:40:13.589Z,76.90
2019-02-10T04:42:44.019Z,76.50
2019-02-10T04:45:14.479Z,76.70
2019-02-10T04:47:45.244Z,76.50
2019-02-10T04:50:15.697Z,76.20
2019-02-10T04:52:46.518Z,76.00
2019-02-10T04:55:16.959Z,75.50
2019-02-10T04:57:47.386Z,75.20
2019-02-10T05:00:17.816Z,75.00
2019-02-10T05:02:48.253Z,75.20
2019-02-10T05:05:19.051Z,75.00
2019-02-10T05:07:54.460Z,75.30
2019-02-10T05:10:21.895Z,75.80
2019-02-10T05:12:52.367Z,76.00
2019-02-10T05:15:22.848Z,76.10
2019-02-10T05:17:53.273Z,76.20
2019-02-10T05:20:23.715Z,76.40
2019-02-10T05:22:54.434Z,75.80
2019-02-10T05:25:24.874Z,75.90
2019-02-10T05:27:55.602Z,76.60
2019-02-10T05:30:26.031Z,76.50
2019-02-10T05:32:56.853Z,77.50
2019-02-10T05:35:27.298Z,76.60
2019-02-10T05:38:03.955Z,76.70
2019-02-10T05:40:29.886Z,76.70
2019-02-10T05:43:00.328Z,76.90
2019-02-10T05:45:30.778Z,76.80
2019-02-10T05:48:01.210Z,76.80
2019-02-10T05:50:32.621Z,76.80
2019-02-10T05:53:03.064Z,76.70
2019-02-10T05:55:33.526Z,77.60
2019-02-10T05:58:03.961Z,77.90
2019-02-10T06:00:34.426Z,77.50
2019-02-10T06:03:04.856Z,77.60
2019-02-10T06:05:35.328Z,77.70
2019-02-10T06:08:12.924Z,77.80
2019-02-10T06:10:37.898Z,77.90
2019-02-10T06:13:08.883Z,77.50
2019-02-10T06:15:39.314Z,77.40
2019-02-10T06:18:09.790Z,78.20
2019-02-10T06:20:40.238Z,77.50
2019-02-10T06:23:10.687Z,76.80
2019-02-10T06:25:41.121Z,76.10
2019-02-10T06:28:11.566Z,76.70
2019-02-10T06:30:42.028Z,75.70
2019-02-10T06:33:12.452Z,76.40
2019-02-10T06:35:42.921Z,76.30
2019-02-10T06:38:21.900Z,76.30
2019-02-10T06:40:45.846Z,75.70
2019-02-10T06:43:16.270Z,74.60
2019-02-10T06:45:46.983Z,74.10
2019-02-10T06:48:17.432Z,74.20
2019-02-10T06:50:47.878Z,72.60
2019-02-10T06:53:18.319Z,73.50
2019-02-10T06:55:48.817Z,73.20
2019-02-10T06:58:19.254Z,72.90
2019-02-10T07:01:00.388Z,72.90
2019-02-10T07:03:42.799Z,72.50
2019-02-10T07:06:13.786Z,72.70
2019-02-10T07:08:44.498Z,72.60
2019-02-10T07:11:14.929Z,72.90
2019-02-10T07:13:48.023Z,73.80
2019-02-10T07:16:46.315Z,73.00
2019-02-10T07:20:12.259Z,72.80
2019-02-10T07:23:26.613Z,72.90
2019-02-10T07:26:04.697Z,72.90
2019-02-10T07:28:54.371Z,73.50
2019-02-10T07:31:32.479Z,74.40
2019-02-10T07:34:47.923Z,74.20
2019-02-10T07:37:30.063Z,73.80
2019-02-10T07:40:32.767Z,72.60
2019-02-10T07:43:38.493Z,71.70
2019-02-10T07:46:37.039Z,71.20
2019-02-10T07:49:39.610Z,71.20
2019-02-10T07:52:33.846Z,71.10
2019-02-10T07:55:54.646Z,70.70
2019-02-10T07:59:04.429Z,70.50
2019-02-10T08:02:18.005Z,71.00
2019-02-10T08:05:29.457Z,70.70
2019-02-10T08:08:46.298Z,70.40
2019-02-10T08:12:06.874Z,69.40
2019-02-10T08:14:52.329Z,69.00
2019-02-10T08:18:15.207Z,70.00
2019-02-10T08:21:27.178Z,69.80
2019-02-10T08:24:37.280Z,69.20
2019-02-10T08:27:53.478Z,67.90
2019-02-10T08:30:51.639Z,68.00
2019-02-10T08:33:27.060Z,66.60
2019-02-10T08:36:25.841Z,66.10
2019-02-10T08:39:10.314Z,66.50
2019-02-10T08:41:50.782Z,65.70
2019-02-10T08:44:55.093Z,65.40
2019-02-10T08:48:18.614Z,65.50
2019-02-10T08:51:38.496Z,65.50
2019-02-10T08:54:09.554Z,66.20
2019-02-10T08:56:40.436Z,66.60
2019-02-10T08:59:10.956Z,66.70
2019-02-10T09:01:41.714Z,65.50
2019-02-10T09:04:13.139Z,64.60
2019-02-10T09:06:43.570Z,64.60
2019-02-10T09:09:14.382Z,64.50
2019-02-10T09:11:44.874Z,64.60
2019-02-10T09:14:15.631Z,63.70
2019-02-10T09:16:46.175Z,63.10
2019-02-10T09:19:16.640Z,63.40
2019-02-10T09:21:47.385Z,62.90
2019-02-10T09:24:17.874Z,63.00
2019-02-10T09:26:48.334Z,63.00
2019-02-10T09:29:18.787Z,64.10
2019-02-10T09:31:49.314Z,65.20
2019-02-10T09:34:19.774Z,65.20
2019-02-10T09:36:50.319Z,65.50
2019-02-10T09:39:20.772Z,65.30
2019-02-10T09:41:51.271Z,65.30
2019-02-10T09:44:21.714Z,65.30
2019-02-10T09:46:52.462Z,64.40
2019-02-10T09:49:22.921Z,64.60
2019-02-10T09:51:54.409Z,62.60
2019-02-10T09:54:24.934Z,61.30
2019-02-10T09:56:55.441Z,61.70
2019-02-10T09:59:25.897Z,60.90
2019-02-10T10:01:56.722Z,60.40
2019-02-10T10:04:27.343Z,59.80
2019-02-10T10:06:57.822Z,58.90
2019-02-10T10:09:28.316Z,58.40
2019-02-10T10:11:58.794Z,58.20
2019-02-10T10:14:30.901Z,58.00
2019-02-10T10:17:01.697Z,57.60
2019-02-10T10:19:32.194Z,57.70
2019-02-10T10:22:02.799Z,57.90
2019-02-10T10:24:33.246Z,57.80
2019-02-10T10:27:03.702Z,58.70
2019-02-10T10:29:34.162Z,58.00
2019-02-10T10:32:04.605Z,57.70
2019-02-10T10:34:35.054Z,57.80
2019-02-10T10:37:05.522Z,58.70
2019-02-10T10:39:36.341Z,58.40
2019-02-10T10:42:07.161Z,57.70
2019-02-10T10:44:37.634Z,58.20
2019-02-10T10:47:08.062Z,59.50
2019-02-10T10:49:38.518Z,58.70
2019-02-10T10:52:08.966Z,59.00
2019-02-10T10:54:42.887Z,59.10
2019-02-10T10:57:11.645Z,58.80
2019-02-10T10:59:42.093Z,59.90
2019-02-10T11:02:12.541Z,59.40
2019-02-10T11:04:43.005Z,59.50
2019-02-10T11:07:13.519Z,58.40
2019-02-10T11:09:43.995Z,57.80
2019-02-10T11:12:14.469Z,56.40
2019-02-10T11:14:44.993Z,55.40
2019-02-10T11:17:15.759Z,55.40
2019-02-10T11:19:46.530Z,55.80
2019-02-10T11:22:16.986Z,56.60
2019-02-10T11:24:47.444Z,56.80
2019-02-10T11:27:17.914Z,56.00
2019-02-10T11:29:48.797Z,56.00
2019-02-10T11:32:19.258Z,57.40
2019-02-10T11:34:49.714Z,56.50
2019-02-10T11:37:26.691Z,55.50
2019-02-10T11:39:52.633Z,55.70
2019-02-10T11:42:23.159Z,55.70
2019-02-10T11:44:53.591Z,56.90
2019-02-10T11:47:24.049Z,57.50
2019-02-10T11:49:54.489Z,56.70
2019-02-10T11:52:24.994Z,57.20
2019-02-10T11:54:55.456Z,56.30
2019-02-10T11:57:25.910Z,56.50
2019-02-10T11:59:56.367Z,56.00
2019-02-10T12:02:26.850Z,56.40
2019-02-10T12:04:57.303Z,55.60
2019-02-10T12:07:27.742Z,54.60
2019-02-10T12:09:58.217Z,55.20
2019-02-10T12:12:28.741Z,55.40
2019-02-10T12:14:59.530Z,54.80
2019-02-10T12:17:29.971Z,54.60
2019-02-10T12:20:00.443Z,55.40
2019-02-10T12:22:30.891Z,55.20
2019-02-10T12:25:01.331Z,55.80
2019-02-10T12:27:32.519Z,55.70
2019-02-10T12:30:03.252Z,56.10
2019-02-10T12:32:34.848Z,57.60
2019-02-10T12:38:00.443Z,57.70
2019-02-10T12:40:31.331Z,57.90
2019-02-10T12:43:01.778Z,56.70
2019-02-10T12:45:33.399Z,55.90
2019-02-10T12:48:03.855Z,56.50
2019-02-10T12:50:34.387Z,56.10
2019-02-10T12:53:04.850Z,55.80
2019-02-10T12:55:35.322Z,55.10
2019-02-10T12:58:05.785Z,54.60
2019-02-10T13:00:37.909Z,54.40
2019-02-10T13:03:08.482Z,54.00
2019-02-10T13:05:38.926Z,54.60
2019-02-10T13:08:09.382Z,54.80
2019-02-10T13:10:39.834Z,54.90
2019-02-10T13:13:18.969Z,55.20
2019-02-10T13:15:43.372Z,55.50
2019-02-10T13:18:14.369Z,55.90
2019-02-10T13:20:44.802Z,56.00
2019-02-10T13:23:15.483Z,56.00
2019-02-10T13:25:46.862Z,56.20
2019-02-10T13:28:17.997Z,56.20
2019-02-10T13:30:48.787Z,56.70
2019-02-10T13:33:20.003Z,56.40
2019-02-10T13:35:50.894Z,56.60
2019-02-10T13:38:23.504Z,57.00
2019-02-10T13:40:54.239Z,57.30
2019-02-10T13:43:33.195Z,57.10
2019-02-10T13:45:57.597Z,57.30
2019-02-10T13:48:28.042Z,57.60
2019-02-10T13:50:58.491Z,57.50
2019-02-10T13:53:28.930Z,57.70
2019-02-10T13:55:59.466Z,57.50
2019-02-10T13:58:30.291Z,57.40
2019-02-10T14:01:00.758Z,57.90
2019-02-10T14:03:31.213Z,57.60
2019-02-10T14:06:01.650Z,57.80
2019-02-10T14:08:32.092Z,57.60
2019-02-10T14:11:02.550Z,57.70
2019-02-10T14:13:33.079Z,57.50
2019-02-10T14:16:03.527Z,57.90
2019-02-10T14:18:33.991Z,57.60
2019-02-10T14:21:04.434Z,58.30
2019-02-10T14:23:35.172Z,57.70
2019-02-10T14:26:05.650Z,58.00
2019-02-10T14:28:36.450Z,58.70
2019-02-10T14:31:06.933Z,58.40
2019-02-10T14:33:38.955Z,58.00
2019-02-10T14:36:09.735Z,58.50
2019-02-10T14:38:40.198Z,57.90
2019-02-10T14:41:10.642Z,58.00
2019-02-10T14:43:41.156Z,58.10
2019-02-10T14:46:11.888Z,57.70
2019-02-10T14:48:42.354Z,57.70
2019-02-10T14:51:12.816Z,57.60
2019-02-10T14:53:43.634Z,57.70
2019-02-10T14:56:14.067Z,57.60
2019-02-10T14:58:45.252Z,57.60
2019-02-10T15:01:15.686Z,57.60
2019-02-10T15:03:46.126Z,57.80
2019-02-10T15:06:16.587Z,57.90
2019-02-10T15:08:47.051Z,57.80
2019-02-10T15:11:17.770Z,57.90
2019-02-10T15:13:48.248Z,58.30
2019-02-10T15:16:18.683Z,58.60
2019-02-10T15:18:49.486Z,58.50
2019-02-10T15:21:20.006Z,58.40
2019-02-10T15:23:50.484Z,58.40
2019-02-10T15:26:20.940Z,58.80
2019-02-10T15:28:51.411Z,58.90
2019-02-10T15:31:21.859Z,59.20
2019-02-10T15:33:52.655Z,59.70
2019-02-10T15:36:23.086Z,60.50
2019-02-10T15:38:53.526Z,61.30
2019-02-10T15:41:24.006Z,62.20
2019-02-10T15:43:54.834Z,62.80
2019-02-10T15:46:25.258Z,64.10
2019-02-10T15:48:55.714Z,64.00
2019-02-10T15:51:31.561Z,64.80
2019-02-10T15:53:59.394Z,65.50
2019-02-10T15:56:29.830Z,66.30
2019-02-10T15:59:00.282Z,67.90
2019-02-10T16:01:30.734Z,70.40
2019-02-10T16:04:01.551Z,73.70
2019-02-10T16:06:32.000Z,76.00
2019-02-10T16:09:02.689Z,78.30
2019-02-10T16:11:34.747Z,79.80
2019-02-10T16:14:05.223Z,81.60
2019-02-10T16:16:35.936Z,82.30
2019-02-10T16:19:06.401Z,83.80
2019-02-10T16:21:36.860Z,85.60
2019-02-10T16:24:07.339Z,86.30
2019-02-10T16:26:37.788Z,87.60
2019-02-10T16:29:09.486Z,88.50
2019-02-10T16:31:40.250Z,89.10
2019-02-10T16:34:10.745Z,89.00
2019-02-10T16:36:41.224Z,88.70
2019-02-10T16:39:12.826Z,89.70
2019-02-10T16:41:43.270Z,90.10
2019-02-10T16:44:13.754Z,90.00
2019-02-10T16:46:44.236Z,90.00
2019-02-10T16:49:14.698Z,89.70
2019-02-10T16:51:45.158Z,89.60
2019-02-10T16:54:15.625Z,89.00
2019-02-10T16:56:46.170Z,89.50
2019-02-10T16:59:16.624Z,89.20
2019-02-10T17:01:47.163Z,89.90
2019-02-10T17:04:17.673Z,89.20
2019-02-10T17:06:48.148Z,89.80
2019-02-10T17:09:18.910Z,89.70
2019-02-10T17:11:50.042Z,89.10
2019-02-10T17:14:20.604Z,89.10
2019-02-10T17:16:51.053Z,89.40
2019-02-10T17:19:21.598Z,89.60
2019-02-10T17:21:52.102Z,88.80
2019-02-10T17:24:23.018Z,88.80
2019-02-10T17:26:53.486Z,88.70
2019-02-10T17:29:23.998Z,88.20
2019-02-10T17:31:54.469Z,88.10
2019-02-10T17:34:24.954Z,88.00
2019-02-10T17:36:55.456Z,87.60
2019-02-10T17:39:25.955Z,87.30
2019-02-10T17:41:56.463Z,87.00
2019-02-10T17:44:26.908Z,87.00
2019-02-10T17:46:57.367Z,87.00
2019-02-10T17:49:27.842Z,86.60
2019-02-10T17:51:58.835Z,86.10
2019-02-10T17:54:29.302Z,86.40
2019-02-10T17:56:59.750Z,85.70
2019-02-10T17:59:30.276Z,85.10
2019-02-10T18:02:00.813Z,84.40
2019-02-10T18:04:37.345Z,84.00
2019-02-10T18:07:03.451Z,84.50
2019-02-10T18:09:33.925Z,84.40
2019-02-10T18:12:05.517Z,83.90
2019-02-10T18:15:10.423Z,84.10
2019-02-10T18:18:02.701Z,83.50
2019-02-10T18:20:50.944Z,82.40
2019-02-10T18:23:39.406Z,81.60
2019-02-10T18:26:28.913Z,81.20
2019-02-10T18:29:06.779Z,80.80
2019-02-10T18:31:48.252Z,80.40
2019-02-10T18:34:40.642Z,79.30
2019-02-10T18:37:33.278Z,79.10
2019-02-10T18:40:22.886Z,79.20
2019-02-10T18:43:21.495Z,79.70
2019-02-10T18:46:04.013Z,78.40
2019-02-10T18:48:50.567Z,77.70
2019-02-10T18:51:29.579Z,77.70
2019-02-10T18:54:17.848Z,78.10
2019-02-10T18:57:17.051Z,77.10
2019-02-10T18:59:54.234Z,76.80
2019-02-10T19:02:42.758Z,76.90
2019-02-10T19:05:38.509Z,76.00
2019-02-10T19:08:28.039Z,74.70
2019-02-10T19:11:17.731Z,74.60
2019-02-10T19:13:55.073Z,74.10
2019-02-10T19:16:54.013Z,72.50
2019-02-10T19:19:42.161Z,71.10
2019-02-10T19:22:30.739Z,68.90
2019-02-10T19:25:19.533Z,69.10
2019-02-10T19:28:24.127Z,68.90
2019-02-10T19:31:13.658Z,68.20
2019-02-10T19:34:03.442Z,68.70
2019-02-10T19:36:51.865Z,68.90
2019-02-10T19:39:44.413Z,69.90
2019-02-10T19:42:28.011Z,70.30
2019-02-10T19:45:16.273Z,70.70
2019-02-10T19:48:05.778Z,71.20
2019-02-10T19:50:54.527Z,71.70
2019-02-10T19:53:42.931Z,72.00
2019-02-10T19:56:31.046Z,71.10
2019-02-10T19:59:18.364Z,71.20
2019-02-10T20:02:11.020Z,71.50
2019-02-10T20:04:59.146Z,71.20
2019-02-10T20:07:51.670Z,72.40
2019-02-10T20:10:30.162Z,72.40
2019-02-10T20:13:13.097Z,73.50
2019-02-10T20:16:05.672Z,73.80
2019-02-10T20:18:49.516Z,73.90
2019-02-10T20:21:39.074Z,74.20
2019-02-10T20:24:30.226Z,74.00
2019-02-10T20:27:29.960Z,73.90
2019-02-10T20:30:13.958Z,74.80
2019-02-10T20:33:04.022Z,77.70
2019-02-10T20:35:53.586Z,79.10
2019-02-10T20:38:41.937Z,80.70
2019-02-10T20:41:30.978Z,81.90
2019-02-10T20:44:20.477Z,83.30
2019-02-10T20:47:19.249Z,84.20
2019-02-10T20:50:14.713Z,85.10
2019-02-10T20:53:04.350Z,85.40
2019-02-10T20:55:40.817Z,85.90
2019-02-10T20:58:28.936Z,86.50
2019-02-10T21:01:10.485Z,86.80
2019-02-10T21:03:55.310Z,86.80
2019-02-10T21:06:38.215Z,86.40
2019-02-10T21:09:46.219Z,86.70
2019-02-10T21:12:41.609Z,87.00
2019-02-10T21:15:43.410Z,87.70
2019-02-10T21:18:36.122Z,87.70
2019-02-10T21:21:24.755Z,87.60
2019-02-10T21:24:12.891Z,87.80
2019-02-10T21:27:08.241Z,86.90
2019-02-10T21:29:50.879Z,87.00
2019-02-10T21:32:40.384Z,87.20
2019-02-10T21:35:36.218Z,87.10
2019-02-10T21:38:28.815Z,87.20
2019-02-10T21:41:06.414Z,87.30
2019-02-10T21:43:42.929Z,87.20
2019-02-10T21:46:32.718Z,87.20
2019-02-10T21:49:08.692Z,87.20
2019-02-10T21:51:39.158Z,87.30
2019-02-10T21:54:09.744Z,86.80
2019-02-10T21:56:40.235Z,86.60
2019-02-10T21:59:10.711Z,86.90
2019-02-10T22:01:41.185Z,87.00
2019-02-10T22:04:12.945Z,87.10
2019-02-10T22:06:43.437Z,87.20
2019-02-10T22:09:13.904Z,87.00
2019-02-10T22:11:44.385Z,87.30
2019-02-10T22:14:14.822Z,87.10
2019-02-10T22:16:45.625Z,86.40
2019-02-10T22:19:16.092Z,86.40
2019-02-10T22:21:46.565Z,86.80
2019-02-10T22:24:18.105Z,86.90
2019-02-10T22:26:48.585Z,87.00
2019-02-10T22:29:20.010Z,88.20
2019-02-10T22:31:50.798Z,88.30
2019-02-10T22:34:21.581Z,88.00
2019-02-10T22:36:52.758Z,88.50
2019-02-10T22:39:23.250Z,88.50
2019-02-10T22:41:53.750Z,88.70
2019-02-10T22:44:24.239Z,88.70
2019-02-10T22:46:54.744Z,88.80
2019-02-10T22:49:25.210Z,89.00
2019-02-10T22:51:55.767Z,88.60
2019-02-10T22:54:26.627Z,88.80
2019-02-10T22:56:57.492Z,89.10
2019-02-10T22:59:28.294Z,89.40
2019-02-10T23:01:58.806Z,89.10
2019-02-10T23:04:29.399Z,89.50
2019-02-10T23:06:59.888Z,89.20
2019-02-10T23:09:30.365Z,89.40
2019-02-10T23:12:00.835Z,89.10
2019-02-10T23:14:31.271Z,89.70
2019-02-10T23:17:01.740Z,89.50
2019-02-10T23:19:32.178Z,89.70
2019-02-10T23:22:02.635Z,89.90
2019-02-10T23:24:33.183Z,90.00
2019-02-10T23:27:03.681Z,90.00
2019-02-10T23:29:34.294Z,90.00
2019-02-10T23:32:04.813Z,89.70
2019-02-10T23:34:35.582Z,89.80
2019-02-10T23:37:06.647Z,89.40
2019-02-10T23:39:37.102Z,89.70
2019-02-10T23:42:07.583Z,89.70
2019-02-10T23:44:38.066Z,89.60
2019-02-10T23:47:08.838Z,89.90
2019-02-10T23:49:39.297Z,89.80
2019-02-10T23:52:09.910Z,89.50
2019-02-10T23:54:41.969Z,89.40
2019-02-10T23:57:12.496Z,89.30
2019-02-10T23:59:43.256Z,89.20
